Acton, California
Current Conditions -  °F | °C
As of 6:53 PM on Tuesday 21 Oct 2014 (Local Time) from KPMD Reporting Station
Clear Clear  
Wind Chill: 19°   Ceiling: Unl
Heat Index: 19°   Visibility: 10mi
Dew Point: -2°   Wind: 13mph
Humidity: 23%   Direction: 310°NW
Pressure: 29.9"   Gusts: NA
Location:  34.47°N, 118.2°W
Report Text: KPMD 220153Z AUTO 31011KT 10SM CLR 19/M02 A2990 RMK AO2 SLP112 T01941022
Loading
Personal Weather Stations






























Interactive Weather Map
Tropical Storm Tracking
New forecast layout! Learn more

10-Day Weather Forecast

Advertisements
Track Severe Weather on mobile